EDHL

Lübeck Blankensee Airport

Lübeck, Germany
METAR EDHL 231450Z 03012KT CAVOK 23/08 Q1024
Observed Flight Rules
May-23 @ 14:50 UTC (18 minutes ago) Visual Flight Rules
Wind Visibility Clouds
30° at 12 knots 10,000+ meters
  • Clear skies
Temperatures Readings
Current 23°C / 73°F
Dewpoint 8°C / 46°F
Humidity 38%
Altimeter 30.24" Hg
Pressure 1024 hPa
Elevation 16
METAR EDHL 231450Z 03012KT CAVOK 23/08 Q1024
Observed Flight Rules
May-23 @ 14:50 UTC
(18 minutes ago)
VFR
Wind Visibility
30° at 12 knots 10,000+ meters
Clouds
  • Clear skies
Temperature Dewpoint
23°C / 73°F 8°C / 46°F
Humidity Altimeter Pressure
38% 30.24" Hg 1024 hPa